createdAt,value
2022-10-11T00:00:14.973Z,82.37
2022-10-11T00:02:37.305Z,83.80
2022-10-11T00:04:59.710Z,83.58
2022-10-11T00:07:22.218Z,82.95
2022-10-11T00:09:44.848Z,84.35
2022-10-11T00:12:07.286Z,84.63
2022-10-11T00:14:29.678Z,86.57
2022-10-11T00:16:52.930Z,86.24
2022-10-11T00:19:15.968Z,87.87
2022-10-11T00:21:38.442Z,86.32
2022-10-11T00:24:00.947Z,85.91
2022-10-11T00:26:23.313Z,87.61
2022-10-11T00:28:45.786Z,86.11
2022-10-11T00:31:13.857Z,88.27
2022-10-11T00:33:36.401Z,87.52
2022-10-11T00:36:00.619Z,88.77
2022-10-11T00:38:23.091Z,88.12
2022-10-11T00:40:45.743Z,87.37
2022-10-11T00:43:20.394Z,89.25
2022-10-11T00:45:58.097Z,90.20
2022-10-11T00:48:37.795Z,90.57
2022-10-11T00:51:01.686Z,89.80
2022-10-11T00:53:24.308Z,90.63
2022-10-11T00:55:59.824Z,91.52
2022-10-11T00:58:22.532Z,91.35
2022-10-11T01:00:45.111Z,91.81
2022-10-11T01:03:07.456Z,91.14
2022-10-11T01:05:30.500Z,91.32
2022-10-11T01:07:53.148Z,90.94
2022-10-11T01:10:15.686Z,91.38
2022-10-11T01:12:38.097Z,91.16
2022-10-11T01:15:17.405Z,92.11
2022-10-11T01:18:08.895Z,92.62
2022-10-11T01:20:54.575Z,92.06
2022-10-11T01:24:13.341Z,92.48
2022-10-11T01:27:06.355Z,92.44
2022-10-11T01:29:56.546Z,92.54
2022-10-11T01:32:45.545Z,92.78
2022-10-11T01:35:27.743Z,92.72
2022-10-11T01:38:11.778Z,92.17
2022-10-11T01:40:47.309Z,92.48
2022-10-11T01:43:09.749Z,91.23
2022-10-11T01:45:33.004Z,92.07
2022-10-11T01:48:21.711Z,92.85
2022-10-11T01:50:46.462Z,92.07
2022-10-11T01:53:23.073Z,92.44
2022-10-11T01:56:19.090Z,92.36
2022-10-11T01:59:14.278Z,92.21
2022-10-11T02:01:57.985Z,92.13
2022-10-11T02:04:23.057Z,92.54
2022-10-11T02:06:57.991Z,92.16
2022-10-11T02:09:49.720Z,92.59
2022-10-11T02:12:13.444Z,92.16
2022-10-11T02:14:44.095Z,92.54
2022-10-11T02:17:17.674Z,92.34
2022-10-11T02:19:43.170Z,93.14
2022-10-11T02:22:29.582Z,93.10
2022-10-11T02:24:54.009Z,92.32
2022-10-11T02:27:17.666Z,92.71
2022-10-11T02:29:41.024Z,92.85
2022-10-11T02:32:03.783Z,93.86
2022-10-11T02:34:34.034Z,93.43
2022-10-11T02:37:17.057Z,93.19
2022-10-11T02:40:09.006Z,93.33
2022-10-11T02:42:37.174Z,93.10
2022-10-11T02:45:19.924Z,93.65
2022-10-11T02:47:42.264Z,93.07
2022-10-11T02:50:05.217Z,93.19
2022-10-11T02:52:27.808Z,93.75
2022-10-11T02:54:50.200Z,93.22
2022-10-11T02:57:12.832Z,93.87
2022-10-11T02:59:35.173Z,93.51
2022-10-11T03:01:57.593Z,93.81
2022-10-11T03:04:20.064Z,92.86
2022-10-11T03:06:42.399Z,92.67
2022-10-11T03:09:04.821Z,93.30
2022-10-11T03:11:27.192Z,93.52
2022-10-11T03:13:49.600Z,93.35
2022-10-11T03:16:12.453Z,93.40
2022-10-11T03:18:35.276Z,92.10
2022-10-11T03:20:57.678Z,93.60
2022-10-11T03:23:20.047Z,92.73
2022-10-11T03:25:42.395Z,92.96
2022-10-11T03:28:05.140Z,92.94
2022-10-11T03:30:27.511Z,93.35
2022-10-11T03:32:49.829Z,93.22
2022-10-11T03:35:12.154Z,93.27
2022-10-11T03:37:34.607Z,93.54
2022-10-11T03:39:56.953Z,92.69
2022-10-11T03:42:19.316Z,93.54
2022-10-11T03:44:42.279Z,93.30
2022-10-11T03:47:05.627Z,93.09
2022-10-11T03:49:27.871Z,94.25
2022-10-11T03:51:50.288Z,93.85
2022-10-11T03:54:12.666Z,92.60
2022-10-11T03:56:35.054Z,93.24
2022-10-11T03:58:57.451Z,93.34
2022-10-11T04:01:20.210Z,93.46
2022-10-11T04:03:42.911Z,93.59
2022-10-11T04:06:06.161Z,93.38
2022-10-11T04:08:28.797Z,93.35
2022-10-11T04:10:51.816Z,93.87
2022-10-11T04:13:14.197Z,93.84
2022-10-11T04:15:37.751Z,93.79
2022-10-11T04:18:00.227Z,94.13
2022-10-11T04:20:22.597Z,94.32
2022-10-11T04:22:45.022Z,94.13
2022-10-11T04:25:08.566Z,94.26
2022-10-11T04:27:30.917Z,94.89
2022-10-11T04:29:53.286Z,95.33
2022-10-11T04:32:15.645Z,95.33
2022-10-11T04:34:17.774Z,95.39
2022-10-11T04:36:19.777Z,95.76
2022-10-11T04:38:22.455Z,95.90
2022-10-11T04:40:24.403Z,96.47
2022-10-11T04:42:26.380Z,96.13
2022-10-11T04:44:28.388Z,95.46
2022-10-11T04:46:30.531Z,95.45
2022-10-11T04:48:32.636Z,95.66
2022-10-11T04:50:34.904Z,96.31
2022-10-11T04:52:36.933Z,96.39
2022-10-11T04:54:38.959Z,96.50
2022-10-11T04:56:41.147Z,96.43
2022-10-11T04:58:43.226Z,96.26
2022-10-11T05:00:45.227Z,96.74
2022-10-11T05:02:47.241Z,96.59
2022-10-11T05:04:49.342Z,96.19
2022-10-11T05:06:51.352Z,96.45
2022-10-11T05:08:53.399Z,96.31
2022-10-11T05:11:02.454Z,96.60
2022-10-11T05:13:04.947Z,96.50
2022-10-11T05:15:08.156Z,96.63
2022-10-11T05:17:10.183Z,96.32
2022-10-11T05:19:12.479Z,96.56
2022-10-11T05:21:25.061Z,96.68
2022-10-11T05:23:28.843Z,96.70
2022-10-11T05:25:30.845Z,96.39
2022-10-11T05:27:32.873Z,96.24
2022-10-11T05:29:34.882Z,96.73
2022-10-11T05:31:36.888Z,96.43
2022-10-11T05:33:39.077Z,96.46
2022-10-11T05:35:41.114Z,95.93
2022-10-11T05:37:43.165Z,95.80
2022-10-11T05:39:45.207Z,96.02
2022-10-11T05:41:47.244Z,95.96
2022-10-11T05:43:49.338Z,95.57
2022-10-11T05:45:51.340Z,95.50
2022-10-11T05:47:53.402Z,95.60
2022-10-11T05:49:55.570Z,95.33
2022-10-11T05:51:57.643Z,94.96
2022-10-11T05:54:00.064Z,94.54
2022-10-11T05:56:02.470Z,94.41
2022-10-11T05:58:04.892Z,94.18
2022-10-11T06:00:07.686Z,93.56
2022-10-11T06:02:12.934Z,93.81
2022-10-11T06:04:16.575Z,93.10
2022-10-11T06:06:18.921Z,92.80
2022-10-11T06:08:20.914Z,92.04
2022-10-11T06:10:22.939Z,91.74
2022-10-11T06:12:24.948Z,91.33
2022-10-11T06:14:27.018Z,91.52
2022-10-11T06:16:29.089Z,90.78
2022-10-11T06:18:31.872Z,90.62
2022-10-11T06:20:33.864Z,91.13
2022-10-11T06:22:35.899Z,90.72
2022-10-11T06:24:37.961Z,90.30
2022-10-11T06:26:39.995Z,90.28
2022-10-11T06:28:42.089Z,90.12
2022-10-11T06:30:44.189Z,90.14
2022-10-11T06:32:46.190Z,89.52
2022-10-11T06:34:48.261Z,89.45
2022-10-11T06:36:50.317Z,88.90
2022-10-11T06:38:53.824Z,89.21
2022-10-11T06:40:55.832Z,89.23
2022-10-11T06:42:57.823Z,88.82
2022-10-11T06:44:59.847Z,88.82
2022-10-11T06:47:01.905Z,88.00
2022-10-11T06:49:03.986Z,88.25
2022-10-11T06:51:06.155Z,87.82
2022-10-11T06:53:08.418Z,87.59
2022-10-11T06:55:10.467Z,87.68
2022-10-11T06:57:12.680Z,87.15
2022-10-11T06:59:15.177Z,87.09
2022-10-11T07:01:19.155Z,87.28
2022-10-11T07:03:21.236Z,86.86
2022-10-11T07:05:23.263Z,86.79
2022-10-11T07:07:25.302Z,86.64
2022-10-11T07:09:27.387Z,86.27
2022-10-11T07:11:29.551Z,85.77
2022-10-11T07:13:31.713Z,85.54
2022-10-11T07:15:38.340Z,85.29
2022-10-11T07:17:40.469Z,84.93
2022-10-11T07:19:42.515Z,85.01
2022-10-11T07:21:44.564Z,85.34
2022-10-11T07:23:46.558Z,85.41
2022-10-11T07:25:48.786Z,85.05
2022-10-11T07:27:50.824Z,84.60
2022-10-11T07:29:53.018Z,84.47
2022-10-11T07:31:55.049Z,84.68
2022-10-11T07:33:57.078Z,84.33
2022-10-11T07:35:59.286Z,84.30
2022-10-11T07:38:01.333Z,84.08
2022-10-11T07:40:03.855Z,83.91
2022-10-11T07:42:06.803Z,83.74
2022-10-11T07:44:08.796Z,83.46
2022-10-11T07:46:11.407Z,83.34
2022-10-11T07:48:13.439Z,83.12
2022-10-11T07:50:15.566Z,82.32
2022-10-11T07:52:17.618Z,82.17
2022-10-11T07:54:19.688Z,82.61
2022-10-11T07:56:28.727Z,82.52
2022-10-11T07:58:31.300Z,82.42
2022-10-11T08:00:33.310Z,82.48
2022-10-11T08:02:35.351Z,82.08
2022-10-11T08:04:37.467Z,81.12
2022-10-11T08:06:39.563Z,80.31
2022-10-11T08:08:41.719Z,80.13
2022-10-11T08:10:43.881Z,79.41
2022-10-11T08:12:48.273Z,79.51
2022-10-11T08:14:50.362Z,78.16
2022-10-11T08:16:52.487Z,77.81
2022-10-11T08:18:57.075Z,78.05
2022-10-11T08:20:59.359Z,78.25
2022-10-11T08:23:01.354Z,78.08
2022-10-11T08:25:04.007Z,77.10
2022-10-11T08:27:06.014Z,77.57
2022-10-11T08:29:08.229Z,76.69
2022-10-11T08:31:13.334Z,77.66
2022-10-11T08:33:16.388Z,77.54
2022-10-11T08:35:18.449Z,77.95
2022-10-11T08:37:20.498Z,77.75
2022-10-11T08:39:22.547Z,77.10
2022-10-11T08:41:30.434Z,77.19
2022-10-11T08:43:44.189Z,77.13
2022-10-11T08:45:50.368Z,76.72
2022-10-11T08:47:52.385Z,77.23
2022-10-11T08:49:54.652Z,76.52
2022-10-11T08:52:04.549Z,75.95
2022-10-11T08:54:37.282Z,75.45
2022-10-11T08:56:40.103Z,75.41
2022-10-11T08:58:59.005Z,73.89
2022-10-11T09:01:01.081Z,73.73
2022-10-11T09:03:36.644Z,72.52
2022-10-11T09:06:22.146Z,71.33
2022-10-11T09:08:51.945Z,69.58
2022-10-11T09:11:00.191Z,69.90
2022-10-11T09:13:12.489Z,69.63
2022-10-11T09:15:38.634Z,69.26
2022-10-11T09:18:04.542Z,67.92
2022-10-11T09:20:27.437Z,66.45
2022-10-11T09:23:16.796Z,63.69
2022-10-11T09:25:46.928Z,61.35
2022-10-11T09:28:10.853Z,60.91
2022-10-11T09:30:18.001Z,60.87
2022-10-11T09:32:23.457Z,64.46
2022-10-11T09:34:33.690Z,63.46
2022-10-11T09:37:27.591Z,61.83
2022-10-11T09:39:41.543Z,61.04
2022-10-11T09:41:52.262Z,61.19
2022-10-11T09:43:54.318Z,64.67
2022-10-11T09:45:56.324Z,62.50
2022-10-11T09:47:58.442Z,62.44
2022-10-11T09:50:15.393Z,60.73
2022-10-11T09:52:19.854Z,61.17
2022-10-11T09:54:37.872Z,58.50
2022-10-11T09:56:44.029Z,59.09
2022-10-11T09:58:46.084Z,61.29
2022-10-11T10:00:56.648Z,61.10
2022-10-11T10:03:00.999Z,59.75
2022-10-11T10:05:17.114Z,55.62
2022-10-11T10:07:19.316Z,56.88
2022-10-11T10:09:30.239Z,52.47
2022-10-11T10:11:36.875Z,53.05
2022-10-11T10:13:59.774Z,53.56
2022-10-11T10:16:04.198Z,55.44
2022-10-11T10:18:06.630Z,57.01
2022-10-11T10:20:20.187Z,52.92
2022-10-11T10:22:31.365Z,51.62
2022-10-11T10:24:33.288Z,53.19
2022-10-11T10:26:35.457Z,53.28
2022-10-11T10:28:37.572Z,51.24
2022-10-11T10:30:39.679Z,48.83
2022-10-11T10:33:02.144Z,47.49
2022-10-11T10:35:42.336Z,47.32
2022-10-11T10:38:16.698Z,45.30
2022-10-11T10:40:25.626Z,45.87
2022-10-11T10:42:28.874Z,45.30
2022-10-11T10:44:30.969Z,46.62
2022-10-11T10:47:03.252Z,42.32
2022-10-11T10:49:48.770Z,41.58
2022-10-11T10:51:45.076Z,43.54
2022-10-11T10:53:56.934Z,42.83
2022-10-11T10:56:23.970Z,43.39
2022-10-11T10:59:05.543Z,42.03
2022-10-11T11:01:29.375Z,42.11
2022-10-11T11:04:05.021Z,41.81
2022-10-11T11:06:10.319Z,46.10
2022-10-11T11:08:56.404Z,40.40
2022-10-11T11:11:46.475Z,40.91
2022-10-11T11:14:18.798Z,42.01
2022-10-11T11:16:32.949Z,42.74
2022-10-11T11:19:23.507Z,42.85
2022-10-11T11:22:03.357Z,43.76
2022-10-11T11:24:32.797Z,43.48
2022-10-11T11:27:03.466Z,44.20
2022-10-11T11:29:35.850Z,44.47
2022-10-11T11:32:13.425Z,43.86
2022-10-11T11:34:58.658Z,43.16
2022-10-11T11:37:06.714Z,43.08
2022-10-11T11:39:20.903Z,43.57
2022-10-11T11:41:38.625Z,43.39
2022-10-11T11:43:58.522Z,44.27
2022-10-11T11:46:09.722Z,44.09
2022-10-11T11:48:24.715Z,44.06
2022-10-11T11:50:28.611Z,44.33
2022-10-11T11:52:44.246Z,43.25
2022-10-11T11:55:13.244Z,42.27
2022-10-11T11:57:48.917Z,41.49
2022-10-11T12:00:15.727Z,38.33
2022-10-11T12:02:44.623Z,37.48
2022-10-11T12:04:49.725Z,36.55
2022-10-11T12:07:17.548Z,34.39
2022-10-11T12:09:21.641Z,36.43
2022-10-11T12:11:34.543Z,33.46
2022-10-11T12:13:38.309Z,33.76
2022-10-11T12:15:40.350Z,34.05
2022-10-11T12:17:57.589Z,33.05
2022-10-11T12:20:40.977Z,32.29
2022-10-11T12:23:30.409Z,32.18
2022-10-11T12:25:40.481Z,31.80
2022-10-11T12:28:37.793Z,31.57
2022-10-11T12:30:48.254Z,32.41
2022-10-11T12:32:51.089Z,32.85
2022-10-11T12:34:53.105Z,33.82
2022-10-11T12:36:55.190Z,32.66
2022-10-11T12:39:19.289Z,31.40
2022-10-11T12:41:53.699Z,31.84
2022-10-11T12:44:26.404Z,31.42
2022-10-11T12:46:28.392Z,31.92
2022-10-11T12:48:49.618Z,30.51
2022-10-11T12:51:09.640Z,31.04
2022-10-11T12:53:30.499Z,32.59
2022-10-11T12:55:58.315Z,30.30
2022-10-11T12:58:38.201Z,30.01
2022-10-11T13:00:40.112Z,30.28
2022-10-11T13:02:42.716Z,31.40
2022-10-11T13:04:44.725Z,30.61
2022-10-11T13:07:03.198Z,29.46
2022-10-11T13:09:39.961Z,29.16
2022-10-11T13:12:07.353Z,29.53
2022-10-11T13:14:28.067Z,30.16
2022-10-11T13:17:02.429Z,31.68
2022-10-11T13:19:04.440Z,33.39
2022-10-11T13:21:36.361Z,32.17
2022-10-11T13:23:39.047Z,32.19
2022-10-11T13:25:40.937Z,31.78
2022-10-11T13:27:42.935Z,31.89
2022-10-11T13:29:45.536Z,31.30
2022-10-11T13:31:47.674Z,32.01
2022-10-11T13:33:49.991Z,32.68
2022-10-11T13:35:52.592Z,32.41
2022-10-11T13:37:54.496Z,31.52
2022-10-11T13:39:57.033Z,32.87
2022-10-11T13:41:59.256Z,32.62
2022-10-11T13:44:01.483Z,33.60
2022-10-11T13:46:06.588Z,34.22
2022-10-11T13:48:14.824Z,34.26
2022-10-11T13:50:20.004Z,34.27
2022-10-11T13:52:24.182Z,33.90
2022-10-11T13:54:26.359Z,33.91
2022-10-11T13:56:30.016Z,33.87
2022-10-11T13:58:45.353Z,33.50
2022-10-11T14:01:27.922Z,32.95
2022-10-11T14:03:45.976Z,33.02
2022-10-11T14:05:58.663Z,33.24
2022-10-11T14:08:04.479Z,33.49
2022-10-11T14:10:06.906Z,33.20
2022-10-11T14:12:38.235Z,33.22
2022-10-11T14:14:41.827Z,33.70
2022-10-11T14:16:57.477Z,33.30
2022-10-11T14:18:59.360Z,32.60
2022-10-11T14:21:19.486Z,32.51
2022-10-11T14:23:21.562Z,32.57
2022-10-11T14:25:23.548Z,33.07
2022-10-11T14:27:25.563Z,33.39
2022-10-11T14:29:36.822Z,33.45
2022-10-11T14:31:42.105Z,33.17
2022-10-11T14:33:44.274Z,34.05
2022-10-11T14:35:46.304Z,34.18
2022-10-11T14:37:48.338Z,34.76
2022-10-11T14:39:51.202Z,35.24
2022-10-11T14:41:53.630Z,36.13
2022-10-11T14:43:57.860Z,36.64
2022-10-11T14:45:59.880Z,36.64
2022-10-11T14:48:01.877Z,36.62
2022-10-11T14:50:58.561Z,36.36
2022-10-11T14:53:00.874Z,37.15
2022-10-11T14:55:03.021Z,37.62
2022-10-11T14:57:05.197Z,37.84
2022-10-11T14:59:07.311Z,37.92
2022-10-11T15:01:14.096Z,37.94
2022-10-11T15:03:16.139Z,37.76
2022-10-11T15:05:18.409Z,37.75
2022-10-11T15:07:20.413Z,37.80
2022-10-11T15:09:23.273Z,37.56
2022-10-11T15:11:25.469Z,37.57
2022-10-11T15:13:27.505Z,37.73
2022-10-11T15:15:30.784Z,37.70
2022-10-11T15:17:32.805Z,38.08
2022-10-11T15:19:34.800Z,37.71
2022-10-11T15:21:36.838Z,37.83
2022-10-11T15:23:39.003Z,37.79
2022-10-11T15:25:41.119Z,38.16
2022-10-11T15:27:43.518Z,37.82
2022-10-11T15:29:45.531Z,38.17
2022-10-11T15:31:49.332Z,38.68
2022-10-11T15:33:51.500Z,38.76
2022-10-11T15:35:53.494Z,39.16
2022-10-11T15:37:58.290Z,39.07
2022-10-11T15:40:00.452Z,39.55
2022-10-11T15:42:02.546Z,40.27
2022-10-11T15:44:04.655Z,40.53
2022-10-11T15:46:07.050Z,40.96
2022-10-11T15:48:13.815Z,41.48
2022-10-11T15:50:34.833Z,41.74
2022-10-11T15:52:36.878Z,41.82
2022-10-11T15:54:38.869Z,42.20
2022-10-11T15:56:40.881Z,42.46
2022-10-11T15:58:43.154Z,42.66
2022-10-11T16:00:46.233Z,42.61
2022-10-11T16:02:48.236Z,43.26
2022-10-11T16:04:50.229Z,43.64
2022-10-11T16:06:52.261Z,44.40
2022-10-11T16:08:54.268Z,43.92
2022-10-11T16:10:57.270Z,44.68
2022-10-11T16:12:59.289Z,45.39
2022-10-11T16:15:01.346Z,45.91
2022-10-11T16:17:05.644Z,45.86
2022-10-11T16:19:10.494Z,46.33
2022-10-11T16:21:15.576Z,46.94
2022-10-11T16:23:17.604Z,46.86
2022-10-11T16:25:20.063Z,47.02
2022-10-11T16:27:22.164Z,46.75
2022-10-11T16:29:25.663Z,47.46
2022-10-11T16:31:27.676Z,48.33
2022-10-11T16:33:31.826Z,48.09
2022-10-11T16:35:33.810Z,49.67
2022-10-11T16:37:36.487Z,51.28
2022-10-11T16:39:38.708Z,50.87
2022-10-11T16:41:40.994Z,50.28
2022-10-11T16:43:43.017Z,50.30
2022-10-11T16:45:45.115Z,50.53
2022-10-11T16:47:47.342Z,51.00
2022-10-11T16:49:49.351Z,50.96
2022-10-11T16:51:51.936Z,52.12
2022-10-11T16:53:53.971Z,53.39
2022-10-11T16:55:55.983Z,54.17
2022-10-11T16:57:58.011Z,53.62
2022-10-11T16:59:59.988Z,53.14
2022-10-11T17:02:02.078Z,54.52
2022-10-11T17:04:04.346Z,53.51
2022-10-11T17:06:07.060Z,53.12
2022-10-11T17:08:09.434Z,53.90
2022-10-11T17:10:11.475Z,53.58
2022-10-11T17:12:14.147Z,54.47
2022-10-11T17:14:16.181Z,54.98
2022-10-11T17:16:18.298Z,54.92
2022-10-11T17:18:20.303Z,54.73
2022-10-11T17:20:22.398Z,55.21
2022-10-11T17:22:24.601Z,55.04
2022-10-11T17:24:26.758Z,55.75
2022-10-11T17:26:28.742Z,55.43
2022-10-11T17:28:34.647Z,57.08
2022-10-11T17:30:36.824Z,55.63
2022-10-11T17:32:38.886Z,56.14
2022-10-11T17:34:40.901Z,58.06
2022-10-11T17:36:43.134Z,58.42
2022-10-11T17:38:45.272Z,57.41
2022-10-11T17:40:47.693Z,57.32
2022-10-11T17:42:49.703Z,58.05
2022-10-11T17:44:51.784Z,58.81
2022-10-11T17:46:53.973Z,59.54
2022-10-11T17:48:56.053Z,58.51
2022-10-11T17:50:58.046Z,58.84
2022-10-11T17:53:00.084Z,59.78
2022-10-11T17:55:02.111Z,59.11
2022-10-11T17:57:04.203Z,59.35
2022-10-11T17:59:06.277Z,59.12
2022-10-11T18:01:11.710Z,59.26
2022-10-11T18:03:14.012Z,59.40
2022-10-11T18:05:16.851Z,59.92
2022-10-11T18:07:18.796Z,62.48
2022-10-11T18:09:21.311Z,59.03
2022-10-11T18:11:23.440Z,59.82
2022-10-11T18:13:25.539Z,59.68
2022-10-11T18:15:31.174Z,60.78
2022-10-11T18:17:33.186Z,60.88
2022-10-11T18:19:35.286Z,60.84
2022-10-11T18:21:37.954Z,61.84
2022-10-11T18:23:40.191Z,61.48
2022-10-11T18:25:42.189Z,61.54
2022-10-11T18:27:44.212Z,62.28
2022-10-11T18:29:46.401Z,63.73
2022-10-11T18:31:48.476Z,63.09
2022-10-11T18:33:51.137Z,63.55
2022-10-11T18:36:04.900Z,64.89
2022-10-11T18:38:07.179Z,64.96
2022-10-11T18:40:09.856Z,63.81
2022-10-11T18:42:11.837Z,65.19
2022-10-11T18:44:15.081Z,65.70
2022-10-11T18:46:17.732Z,66.44
2022-10-11T18:48:19.759Z,64.45
2022-10-11T18:50:21.766Z,66.01
2022-10-11T18:52:23.772Z,65.02
2022-10-11T18:54:25.780Z,65.32
2022-10-11T18:56:28.587Z,65.00
2022-10-11T18:58:30.791Z,67.77
2022-10-11T19:00:41.276Z,66.55
2022-10-11T19:02:43.734Z,66.31
2022-10-11T19:04:45.849Z,66.43
2022-10-11T19:06:48.801Z,67.31
2022-10-11T19:08:53.668Z,66.59
2022-10-11T19:10:55.696Z,68.39
2022-10-11T19:12:57.697Z,67.28
2022-10-11T19:15:01.796Z,67.19
2022-10-11T19:17:03.851Z,66.92
2022-10-11T19:19:26.842Z,68.45
2022-10-11T19:21:48.840Z,67.76
2022-10-11T19:24:11.234Z,70.79
2022-10-11T19:26:36.037Z,69.47
2022-10-11T19:29:04.279Z,69.23
2022-10-11T19:31:26.975Z,68.99
2022-10-11T19:33:49.702Z,68.49
2022-10-11T19:36:13.923Z,67.76
2022-10-11T19:38:36.362Z,69.09
2022-10-11T19:41:01.161Z,70.68
2022-10-11T19:43:23.689Z,69.17
2022-10-11T19:45:46.020Z,71.16
2022-10-11T19:48:08.384Z,69.35
2022-10-11T19:50:30.757Z,70.73
2022-10-11T19:52:53.175Z,71.88
2022-10-11T19:55:15.626Z,72.08
2022-10-11T19:57:37.986Z,71.82
2022-10-11T20:00:00.338Z,70.63
2022-10-11T20:02:22.701Z,70.36
2022-10-11T20:04:52.360Z,70.71
2022-10-11T20:07:15.317Z,70.43
2022-10-11T20:09:37.859Z,70.55
2022-10-11T20:12:00.185Z,72.69
2022-10-11T20:14:22.717Z,71.51
2022-10-11T20:16:45.105Z,71.56
2022-10-11T20:19:07.436Z,71.27
2022-10-11T20:21:30.319Z,70.83
2022-10-11T20:23:53.063Z,72.74
2022-10-11T20:26:23.280Z,73.82
2022-10-11T20:28:45.710Z,72.37
2022-10-11T20:31:13.947Z,73.77
2022-10-11T20:33:36.359Z,73.42
2022-10-11T20:36:09.172Z,74.23
2022-10-11T20:38:33.512Z,72.06
2022-10-11T20:40:56.079Z,72.75
2022-10-11T20:43:18.546Z,73.16
2022-10-11T20:45:40.931Z,74.43
2022-10-11T20:48:03.286Z,74.18
2022-10-11T20:50:25.693Z,73.29
2022-10-11T20:52:48.216Z,74.65
2022-10-11T20:55:10.603Z,73.20
2022-10-11T20:57:33.201Z,75.03
2022-10-11T20:59:55.694Z,73.44
2022-10-11T21:02:19.049Z,74.71
2022-10-11T21:04:41.581Z,74.44
2022-10-11T21:07:03.906Z,76.31
2022-10-11T21:09:26.283Z,74.59
2022-10-11T21:11:48.612Z,75.88
2022-10-11T21:14:11.037Z,76.61
2022-10-11T21:16:33.954Z,75.29
2022-10-11T21:18:57.442Z,75.55
2022-10-11T21:21:20.068Z,75.54
2022-10-11T21:23:42.420Z,76.12
2022-10-11T21:26:09.400Z,75.06
2022-10-11T21:28:31.807Z,76.12
2022-10-11T21:30:54.186Z,74.98
2022-10-11T21:33:16.517Z,77.58
2022-10-11T21:35:39.992Z,75.51
2022-10-11T21:38:02.384Z,76.77
2022-10-11T21:40:25.412Z,77.32
2022-10-11T21:42:47.763Z,76.33
2022-10-11T21:45:10.155Z,77.50
2022-10-11T21:47:33.017Z,77.44
2022-10-11T21:49:58.880Z,78.96
2022-10-11T21:52:21.215Z,77.51
2022-10-11T21:54:43.560Z,78.55
2022-10-11T21:57:06.334Z,80.57
2022-10-11T21:59:28.695Z,80.27
2022-10-11T22:01:51.134Z,79.78
2022-10-11T22:04:13.565Z,78.67
2022-10-11T22:06:36.349Z,79.71
2022-10-11T22:08:58.698Z,79.94
2022-10-11T22:11:21.004Z,80.25
2022-10-11T22:13:43.354Z,80.17
2022-10-11T22:16:07.576Z,79.95
2022-10-11T22:18:33.293Z,78.99
2022-10-11T22:21:06.294Z,80.33
2022-10-11T22:23:28.627Z,78.69
2022-10-11T22:25:51.018Z,79.14
2022-10-11T22:28:13.566Z,79.41
2022-10-11T22:30:35.922Z,78.95
2022-10-11T22:32:58.376Z,78.86
2022-10-11T22:35:20.668Z,77.78
2022-10-11T22:37:43.243Z,78.33
2022-10-11T22:40:06.210Z,78.67
2022-10-11T22:42:30.359Z,78.03
2022-10-11T22:44:52.861Z,77.69
2022-10-11T22:47:15.238Z,77.32
2022-10-11T22:49:37.596Z,78.18
2022-10-11T22:51:59.937Z,79.13
2022-10-11T22:54:22.302Z,80.66
2022-10-11T22:56:44.616Z,82.36
2022-10-11T22:59:07.298Z,81.61
2022-10-11T23:01:29.773Z,83.07
2022-10-11T23:03:52.217Z,81.42
2022-10-11T23:06:14.628Z,82.40
2022-10-11T23:08:36.972Z,82.84
2022-10-11T23:11:08.413Z,83.41
2022-10-11T23:13:30.820Z,83.53
2022-10-11T23:15:53.210Z,83.11
2022-10-11T23:18:16.490Z,81.59
2022-10-11T23:20:39.545Z,84.06
2022-10-11T23:23:01.853Z,85.42
2022-10-11T23:25:24.195Z,85.71
2022-10-11T23:27:46.526Z,84.75
2022-10-11T23:30:10.192Z,84.02
2022-10-11T23:32:32.525Z,85.56
2022-10-11T23:34:54.877Z,84.93
2022-10-11T23:37:17.523Z,84.86
2022-10-11T23:39:39.963Z,86.20
2022-10-11T23:42:02.501Z,86.78
2022-10-11T23:44:24.863Z,85.57
2022-10-11T23:46:47.287Z,86.09
2022-10-11T23:49:09.623Z,85.80
2022-10-11T23:51:31.946Z,86.72
2022-10-11T23:53:54.334Z,87.58
2022-10-11T23:56:16.671Z,87.83
2022-10-11T23:58:39.244Z,87.32
